createdAt,value
2023-03-27T00:42:14.090Z,73.39
2023-03-27T00:45:15.162Z,73.41
2023-03-27T00:48:45.496Z,73.48
2023-03-27T00:54:55.316Z,73.99
2023-03-27T00:57:33.365Z,74.02
2023-03-27T01:00:18.235Z,74.08
2023-03-27T01:02:57.176Z,74.42
2023-03-27T01:05:49.297Z,74.53
2023-03-27T01:08:25.964Z,74.27
2023-03-27T01:11:13.454Z,74.31
2023-03-27T01:14:10.593Z,74.31
2023-03-27T01:16:47.097Z,74.22
2023-03-27T01:20:20.616Z,74.23
2023-03-27T01:23:35.929Z,74.05
2023-03-27T01:26:51.375Z,74.27
2023-03-27T01:30:02.322Z,74.37
2023-03-27T01:32:55.884Z,74.25
2023-03-27T01:36:05.694Z,74.19
2023-03-27T01:38:45.934Z,73.89
2023-03-27T01:41:35.302Z,73.67
2023-03-27T01:44:43.378Z,73.34
2023-03-27T01:47:41.863Z,72.89
2023-03-27T01:50:33.818Z,72.72
2023-03-27T01:53:22.168Z,72.54
2023-03-27T01:56:11.703Z,72.48
2023-03-27T01:58:56.645Z,72.51
2023-03-27T02:01:44.602Z,72.51
2023-03-27T02:04:24.234Z,72.44
2023-03-27T02:07:18.109Z,72.31
2023-03-27T02:10:00.371Z,72.08
2023-03-27T02:12:36.443Z,71.95
2023-03-27T02:15:23.502Z,72.08
2023-03-27T02:18:08.705Z,71.83
2023-03-27T02:20:49.212Z,71.57
2023-03-27T02:23:31.986Z,71.57
2023-03-27T02:26:03.828Z,71.60
2023-03-27T02:29:01.274Z,71.78
2023-03-27T02:31:57.632Z,72.02
2023-03-27T02:34:43.319Z,72.24
2023-03-27T02:37:32.162Z,72.32
2023-03-27T02:40:57.748Z,72.09
2023-03-27T02:44:46.839Z,71.84
2023-03-27T02:47:40.953Z,71.70
2023-03-27T02:51:09.620Z,71.90
2023-03-27T02:53:48.253Z,71.77
2023-03-27T02:56:23.345Z,71.54
2023-03-27T02:59:10.076Z,71.47
2023-03-27T03:01:44.641Z,70.93
2023-03-27T03:04:59.311Z,70.97
2023-03-27T03:07:39.896Z,70.33
2023-03-27T03:10:17.364Z,70.17
2023-03-27T03:12:59.367Z,69.70
2023-03-27T03:15:33.144Z,69.49
2023-03-27T03:18:05.738Z,69.35
2023-03-27T03:20:40.924Z,69.05
2023-03-27T03:23:11.857Z,68.66
2023-03-27T03:25:43.087Z,68.53
2023-03-27T03:28:19.629Z,68.33
2023-03-27T03:30:52.073Z,68.72
2023-03-27T03:33:25.422Z,68.49
2023-03-27T03:35:56.697Z,68.37
2023-03-27T03:38:37.622Z,67.94
2023-03-27T03:41:18.602Z,68.18
2023-03-27T03:43:55.159Z,68.31
2023-03-27T03:46:28.828Z,68.21
2023-03-27T03:49:00.110Z,68.39
2023-03-27T03:51:33.256Z,68.45
2023-03-27T03:54:04.141Z,68.98
2023-03-27T03:57:06.654Z,69.55
2023-03-27T03:59:40.700Z,69.49
2023-03-27T04:02:33.504Z,69.61
2023-03-27T04:05:14.809Z,69.94
2023-03-27T04:07:48.630Z,69.82
2023-03-27T04:10:31.823Z,70.55
2023-03-27T04:13:05.582Z,70.12
2023-03-27T04:15:43.060Z,70.71
2023-03-27T04:18:33.836Z,70.64
2023-03-27T04:21:15.714Z,71.03
2023-03-27T04:23:52.662Z,71.34
2023-03-27T04:26:35.957Z,71.54
2023-03-27T04:29:35.917Z,71.72
2023-03-27T04:32:11.964Z,71.88
2023-03-27T04:34:42.694Z,72.03
2023-03-27T04:37:45.631Z,72.00
2023-03-27T04:40:32.204Z,71.85
2023-03-27T04:43:03.287Z,71.93
2023-03-27T04:45:39.963Z,71.75
2023-03-27T04:48:11.281Z,71.76
2023-03-27T04:50:54.152Z,71.93
2023-03-27T04:53:39.716Z,71.59
2023-03-27T04:56:11.057Z,71.62
2023-03-27T04:58:48.892Z,71.76
2023-03-27T05:01:21.355Z,71.55
2023-03-27T05:04:10.772Z,71.46
2023-03-27T05:07:05.462Z,70.96
2023-03-27T05:09:37.778Z,71.16
2023-03-27T05:12:09.593Z,70.76
2023-03-27T05:14:50.021Z,70.68
2023-03-27T05:17:48.543Z,70.31
2023-03-27T05:20:23.560Z,70.54
2023-03-27T05:22:57.970Z,70.30
2023-03-27T05:25:30.895Z,70.40
2023-03-27T05:28:02.521Z,70.48
2023-03-27T05:30:35.763Z,70.50
2023-03-27T05:33:27.985Z,70.53
2023-03-27T05:35:58.924Z,70.68
2023-03-27T05:38:29.828Z,70.61
2023-03-27T05:41:13.084Z,70.66
2023-03-27T05:43:52.442Z,70.44
2023-03-27T05:46:27.622Z,70.68
2023-03-27T05:49:06.527Z,70.76
2023-03-27T05:51:39.062Z,70.62
2023-03-27T05:54:24.826Z,70.67
2023-03-27T05:57:08.181Z,70.63
2023-03-27T05:59:41.048Z,70.25
2023-03-27T06:02:23.375Z,70.66
2023-03-27T06:05:07.194Z,70.87
2023-03-27T06:07:43.963Z,70.85
2023-03-27T06:10:22.167Z,70.73
2023-03-27T06:13:24.235Z,70.58
2023-03-27T06:16:02.237Z,70.54
2023-03-27T06:18:55.398Z,70.52
2023-03-27T06:21:33.168Z,70.38
2023-03-27T06:24:06.323Z,70.32
2023-03-27T06:26:38.056Z,70.48
2023-03-27T06:29:09.790Z,70.16
2023-03-27T06:31:47.625Z,69.89
2023-03-27T06:34:36.553Z,70.18
2023-03-27T06:37:22.555Z,70.19
2023-03-27T06:39:52.945Z,70.12
2023-03-27T06:42:23.599Z,69.90
2023-03-27T06:45:01.135Z,70.59
2023-03-27T06:48:18.013Z,70.44
2023-03-27T06:50:56.342Z,70.46
2023-03-27T06:53:35.545Z,70.66
2023-03-27T06:56:08.948Z,70.57
2023-03-27T06:59:03.188Z,70.47
2023-03-27T07:01:34.173Z,71.09
2023-03-27T07:04:24.314Z,70.88
2023-03-27T07:07:14.636Z,70.58
2023-03-27T07:09:49.700Z,70.64
2023-03-27T07:12:24.378Z,70.42
2023-03-27T07:14:54.802Z,70.31
2023-03-27T07:17:42.118Z,70.25
2023-03-27T07:20:21.749Z,70.27
2023-03-27T07:22:56.123Z,70.03
2023-03-27T07:25:46.586Z,70.19
2023-03-27T07:28:25.693Z,70.32
2023-03-27T07:30:57.259Z,70.74
2023-03-27T07:33:28.336Z,70.75
2023-03-27T07:36:01.413Z,70.41
2023-03-27T07:38:50.209Z,70.56
2023-03-27T07:41:25.022Z,70.74
2023-03-27T07:44:02.043Z,71.08
2023-03-27T07:46:48.866Z,70.98
2023-03-27T07:49:39.440Z,71.16
2023-03-27T07:52:15.357Z,71.26
2023-03-27T07:55:00.699Z,71.05
2023-03-27T07:57:59.302Z,71.16
2023-03-27T08:00:36.691Z,71.33
2023-03-27T08:03:15.851Z,71.17
2023-03-27T08:06:05.143Z,71.27
2023-03-27T08:08:36.539Z,71.18
2023-03-27T08:11:16.121Z,71.29
2023-03-27T08:13:56.301Z,71.58
2023-03-27T08:16:32.177Z,71.40
2023-03-27T08:19:04.606Z,71.36
2023-03-27T08:21:38.363Z,71.49
2023-03-27T08:24:10.100Z,71.42
2023-03-27T08:26:59.860Z,71.74
2023-03-27T08:29:30.192Z,72.52
2023-03-27T08:32:03.531Z,73.51
2023-03-27T08:34:33.673Z,73.31
2023-03-27T08:37:04.467Z,73.47
2023-03-27T08:39:43.391Z,73.67
2023-03-27T08:42:22.432Z,73.79
2023-03-27T08:44:57.262Z,73.88
2023-03-27T08:47:57.753Z,73.92
2023-03-27T08:51:19.011Z,74.01
2023-03-27T08:54:28.713Z,73.68
2023-03-27T08:57:00.448Z,73.47
2023-03-27T08:59:33.133Z,73.11
2023-03-27T09:02:23.777Z,73.19
2023-03-27T09:05:28.633Z,73.20
2023-03-27T09:08:07.538Z,73.32
2023-03-27T09:10:50.773Z,72.88
2023-03-27T09:13:46.746Z,72.81
2023-03-27T09:16:36.101Z,72.80
2023-03-27T09:19:37.718Z,72.80
2023-03-27T09:22:13.202Z,73.02
2023-03-27T09:25:35.543Z,73.21
2023-03-27T09:28:32.954Z,73.03
2023-03-27T09:31:36.050Z,73.06
2023-03-27T09:34:16.940Z,73.05
2023-03-27T09:36:50.294Z,72.99
2023-03-27T09:39:25.094Z,73.02
2023-03-27T09:42:19.152Z,72.95
2023-03-27T09:44:58.965Z,72.74
2023-03-27T09:47:41.797Z,72.83
2023-03-27T09:50:25.015Z,72.88
2023-03-27T09:53:25.729Z,72.92
2023-03-27T09:56:18.943Z,72.72
2023-03-27T09:58:55.973Z,72.57
2023-03-27T10:01:38.544Z,72.31
2023-03-27T10:04:23.533Z,72.55
2023-03-27T10:07:11.634Z,72.47
2023-03-27T10:10:23.563Z,72.14
2023-03-27T10:13:06.690Z,72.62
2023-03-27T10:15:47.398Z,72.11
2023-03-27T10:18:29.664Z,72.25
2023-03-27T10:21:22.651Z,71.94
2023-03-27T10:23:54.524Z,71.60
2023-03-27T10:26:42.374Z,71.83
2023-03-27T10:29:39.086Z,71.21
2023-03-27T10:32:16.712Z,70.76
2023-03-27T10:35:00.998Z,70.19
2023-03-27T10:37:58.969Z,69.64
2023-03-27T10:40:40.553Z,69.17
2023-03-27T10:43:41.547Z,68.68
2023-03-27T10:46:33.744Z,60.48
2023-03-27T10:49:16.149Z,52.34
2023-03-27T10:52:06.256Z,49.83
2023-03-27T10:55:11.520Z,48.19
2023-03-27T10:57:48.626Z,48.12
2023-03-27T11:00:28.110Z,48.30
2023-03-27T11:03:16.957Z,49.76
2023-03-27T11:05:55.771Z,52.50
2023-03-27T11:09:03.359Z,55.41
2023-03-27T11:11:51.834Z,55.43
2023-03-27T11:15:03.579Z,55.80
2023-03-27T11:18:01.044Z,55.63
2023-03-27T11:20:59.375Z,56.54
2023-03-27T11:24:00.358Z,57.62
2023-03-27T11:27:13.851Z,60.24
2023-03-27T11:30:06.743Z,59.77
2023-03-27T11:33:27.756Z,58.79
2023-03-27T11:36:25.667Z,57.55
2023-03-27T11:39:22.699Z,56.61
2023-03-27T11:42:01.842Z,57.60
2023-03-27T11:44:33.472Z,55.95
2023-03-27T11:47:55.862Z,57.06
2023-03-27T11:50:54.948Z,56.38
2023-03-27T11:53:26.355Z,56.68
2023-03-27T11:56:44.783Z,56.48
2023-03-27T11:59:29.595Z,56.21
2023-03-27T12:02:22.303Z,55.42
2023-03-27T12:04:57.629Z,53.92
2023-03-27T12:08:00.650Z,53.77
2023-03-27T12:10:39.139Z,54.85
2023-03-27T12:13:41.630Z,55.73
2023-03-27T12:16:53.391Z,54.28
2023-03-27T12:19:44.446Z,54.67
2023-03-27T12:22:51.378Z,54.80
2023-03-27T12:25:48.682Z,53.79
2023-03-27T12:29:02.873Z,56.00
2023-03-27T12:32:51.654Z,56.72
2023-03-27T12:35:30.130Z,55.59
2023-03-27T12:38:08.433Z,56.05
2023-03-27T12:40:43.557Z,56.29
2023-03-27T12:43:25.858Z,53.87
2023-03-27T12:46:20.003Z,52.50
2023-03-27T12:49:10.538Z,55.17
2023-03-27T12:52:07.416Z,54.87
2023-03-27T12:55:19.241Z,55.31
2023-03-27T12:58:04.848Z,54.42
2023-03-27T13:01:08.341Z,54.77
2023-03-27T13:04:17.350Z,56.14
2023-03-27T13:07:07.348Z,56.64
2023-03-27T13:10:25.628Z,53.79
2023-03-27T13:13:24.498Z,54.34
2023-03-27T13:16:22.525Z,52.64
2023-03-27T13:19:25.676Z,54.75
2023-03-27T13:22:30.643Z,52.63
2023-03-27T13:25:15.339Z,56.78
2023-03-27T13:28:10.530Z,55.94
2023-03-27T13:30:53.741Z,54.36
2023-03-27T13:33:48.885Z,53.01
2023-03-27T13:36:34.253Z,52.41
2023-03-27T13:39:06.950Z,55.02
2023-03-27T13:41:47.601Z,53.50
2023-03-27T13:44:55.209Z,53.23
2023-03-27T13:47:37.826Z,53.34
2023-03-27T13:50:32.516Z,53.52
2023-03-27T13:53:43.689Z,53.79
2023-03-27T13:56:46.797Z,52.68
2023-03-27T13:59:29.660Z,52.56
2023-03-27T14:02:14.593Z,54.32
2023-03-27T14:04:58.982Z,52.76
2023-03-27T14:15:50.083Z,53.45
2023-03-27T14:19:16.590Z,53.19
2023-03-27T14:22:14.069Z,53.62
2023-03-27T14:25:07.541Z,52.66
2023-03-27T14:27:56.154Z,53.39
2023-03-27T14:30:32.154Z,50.57
2023-03-27T14:33:25.399Z,53.03
2023-03-27T14:36:05.304Z,53.85
2023-03-27T14:38:40.444Z,52.36
2023-03-27T14:41:28.217Z,52.90
2023-03-27T14:44:05.475Z,52.18
2023-03-27T14:46:50.360Z,53.12
2023-03-27T14:49:26.941Z,54.07
2023-03-27T14:52:05.394Z,52.05
2023-03-27T14:55:01.924Z,52.64
2023-03-27T14:57:39.285Z,52.29
2023-03-27T15:00:21.588Z,51.58
2023-03-27T15:02:55.965Z,51.31
2023-03-27T15:05:29.447Z,51.76
2023-03-27T15:08:04.713Z,50.08
2023-03-27T15:10:56.979Z,50.81
2023-03-27T15:13:42.452Z,49.69
2023-03-27T15:16:29.257Z,50.82
2023-03-27T15:19:11.040Z,48.94
2023-03-27T15:22:01.731Z,50.09
2023-03-27T15:24:33.775Z,47.65
2023-03-27T15:27:05.268Z,49.16
2023-03-27T15:29:45.428Z,47.48
2023-03-27T15:32:21.702Z,49.76
2023-03-27T15:35:04.849Z,49.51
2023-03-27T15:37:41.700Z,49.31
2023-03-27T15:40:15.523Z,50.62
2023-03-27T15:42:56.185Z,48.80
2023-03-27T15:45:40.469Z,48.08
2023-03-27T15:48:40.825Z,50.54
2023-03-27T15:51:22.723Z,50.43
2023-03-27T15:53:57.566Z,47.70
2023-03-27T15:57:09.377Z,49.91
2023-03-27T15:59:51.347Z,48.94
2023-03-27T16:02:28.702Z,47.85
2023-03-27T16:05:00.641Z,49.67
2023-03-27T16:07:37.232Z,49.60
2023-03-27T16:10:08.944Z,48.04
2023-03-27T16:12:44.786Z,50.97
2023-03-27T16:15:37.347Z,49.69
2023-03-27T16:18:26.054Z,50.63
2023-03-27T16:21:08.103Z,50.98
2023-03-27T16:23:39.993Z,50.31
2023-03-27T16:26:15.898Z,51.91
2023-03-27T16:28:47.543Z,52.04
2023-03-27T16:31:20.480Z,49.22
2023-03-27T16:33:50.960Z,49.57
2023-03-27T16:36:28.499Z,52.35
2023-03-27T16:39:00.380Z,50.80
2023-03-27T16:41:32.185Z,50.62
2023-03-27T16:44:04.601Z,49.71
2023-03-27T16:46:37.772Z,51.38
2023-03-27T16:49:09.001Z,51.33
2023-03-27T16:51:39.104Z,53.83
2023-03-27T16:54:09.180Z,51.60
2023-03-27T16:56:41.656Z,53.63
2023-03-27T16:59:11.951Z,51.80
2023-03-27T17:01:42.977Z,52.88
2023-03-27T17:04:13.716Z,54.33
2023-03-27T17:06:43.898Z,52.19
2023-03-27T17:09:16.122Z,54.57
2023-03-27T17:11:47.024Z,55.27
2023-03-27T17:14:18.328Z,54.22
2023-03-27T17:16:51.055Z,56.20
2023-03-27T17:19:23.009Z,52.19
2023-03-27T17:21:53.398Z,53.27
2023-03-27T17:24:24.336Z,54.98
2023-03-27T17:26:54.981Z,53.57
2023-03-27T17:29:26.240Z,52.96
2023-03-27T17:32:03.367Z,52.96
2023-03-27T17:34:34.944Z,52.59
2023-03-27T17:37:05.371Z,52.19
2023-03-27T17:39:36.666Z,53.37
2023-03-27T17:42:07.518Z,50.81
2023-03-27T17:44:40.290Z,51.23
2023-03-27T17:47:14.497Z,51.20
2023-03-27T17:49:46.433Z,51.49
2023-03-27T17:52:17.290Z,50.77
2023-03-27T17:54:48.891Z,50.51
2023-03-27T17:57:19.391Z,51.65
2023-03-27T17:59:50.264Z,52.70
2023-03-27T18:02:22.797Z,54.09
2023-03-27T18:04:55.692Z,52.32
2023-03-27T18:07:27.139Z,53.64
2023-03-27T18:09:58.101Z,52.57
2023-03-27T18:12:29.314Z,53.42
2023-03-27T18:15:00.831Z,50.95
2023-03-27T18:17:32.021Z,51.91
2023-03-27T18:20:03.318Z,50.65
2023-03-27T18:22:34.042Z,52.22
2023-03-27T18:25:05.735Z,51.12
2023-03-27T18:27:42.486Z,51.68
2023-03-27T18:30:15.908Z,51.80
2023-03-27T18:32:48.362Z,51.49
2023-03-27T18:35:21.311Z,50.01
2023-03-27T18:37:52.472Z,52.00
2023-03-27T18:40:22.826Z,50.70
2023-03-27T18:42:54.418Z,51.07
2023-03-27T18:45:25.461Z,52.72
2023-03-27T18:47:55.984Z,52.95
2023-03-27T18:50:27.012Z,53.17
2023-03-27T18:52:57.702Z,49.94
2023-03-27T18:55:28.990Z,51.66
2023-03-27T18:57:59.630Z,53.39
2023-03-27T19:00:30.158Z,51.65
2023-03-27T19:03:01.180Z,51.50
2023-03-27T19:05:32.669Z,52.58
2023-03-27T19:08:02.716Z,52.14
2023-03-27T19:10:35.950Z,51.48
2023-03-27T19:13:42.171Z,52.59
2023-03-27T19:16:33.240Z,54.60
2023-03-27T19:19:24.707Z,52.03
2023-03-27T19:21:55.730Z,53.49
2023-03-27T19:24:49.269Z,51.63
2023-03-27T19:27:23.558Z,52.97
2023-03-27T19:29:57.031Z,55.57
2023-03-27T19:32:27.380Z,52.42
2023-03-27T19:34:58.750Z,52.78
2023-03-27T19:37:31.117Z,54.58
2023-03-27T19:40:02.409Z,53.71
2023-03-27T19:42:34.230Z,54.47
2023-03-27T19:45:05.942Z,55.94
2023-03-27T19:47:37.914Z,54.44
2023-03-27T19:50:10.723Z,54.02
2023-03-27T19:53:05.431Z,53.46
2023-03-27T19:55:40.707Z,54.37
2023-03-27T19:58:13.758Z,52.86
2023-03-27T20:00:45.812Z,56.59
2023-03-27T20:03:17.951Z,55.05
2023-03-27T20:05:50.913Z,55.48
2023-03-27T20:08:23.632Z,55.47
2023-03-27T20:10:53.878Z,54.93
2023-03-27T20:13:25.285Z,54.36
2023-03-27T20:15:55.611Z,52.38
2023-03-27T20:18:26.491Z,53.98
2023-03-27T20:20:57.793Z,56.27
2023-03-27T20:23:34.548Z,56.73
2023-03-27T20:26:07.370Z,56.11
2023-03-27T20:28:40.604Z,55.41
2023-03-27T20:31:12.286Z,56.55
2023-03-27T20:33:42.735Z,55.75
2023-03-27T20:36:14.541Z,58.51
2023-03-27T20:38:44.896Z,56.04
2023-03-27T20:41:18.585Z,54.74
2023-03-27T20:43:50.369Z,58.74
2023-03-27T20:46:21.315Z,56.03
2023-03-27T20:48:53.494Z,56.16
2023-03-27T20:51:25.990Z,56.61
2023-03-27T20:53:59.547Z,59.20
2023-03-27T20:56:31.002Z,59.04
2023-03-27T20:59:01.469Z,59.71
2023-03-27T21:01:31.517Z,59.07
2023-03-27T21:04:03.548Z,56.66
2023-03-27T21:06:39.038Z,57.23
2023-03-27T21:09:11.813Z,58.70
2023-03-27T21:11:42.212Z,58.61
2023-03-27T21:14:16.159Z,58.77
2023-03-27T21:16:47.882Z,57.12
2023-03-27T21:19:18.505Z,60.02
2023-03-27T21:21:49.607Z,57.96
2023-03-27T21:24:21.059Z,58.49
2023-03-27T21:26:52.385Z,61.09
2023-03-27T21:29:24.675Z,60.73
2023-03-27T21:31:54.906Z,59.36
2023-03-27T21:34:27.272Z,61.52
2023-03-27T21:36:58.342Z,60.79
2023-03-27T21:39:30.011Z,59.48
2023-03-27T21:42:00.495Z,57.18
2023-03-27T21:44:30.799Z,60.64
2023-03-27T21:47:02.229Z,59.76
2023-03-27T21:49:34.297Z,58.43
2023-03-27T21:52:06.005Z,60.94
2023-03-27T21:54:37.021Z,60.70
2023-03-27T21:57:07.613Z,59.85
2023-03-27T21:59:38.468Z,59.13
2023-03-27T22:02:10.382Z,60.13
2023-03-27T22:04:44.403Z,58.34
2023-03-27T22:07:14.919Z,59.18
2023-03-27T22:09:49.307Z,62.19
2023-03-27T22:12:19.692Z,59.33
2023-03-27T22:14:50.460Z,58.59
2023-03-27T22:17:20.857Z,60.69
2023-03-27T22:19:55.243Z,59.97
2023-03-27T22:22:27.082Z,58.57
2023-03-27T22:24:58.777Z,59.91
2023-03-27T22:27:29.216Z,59.22
2023-03-27T22:30:00.238Z,61.46
2023-03-27T22:32:31.869Z,60.10
2023-03-27T22:35:03.176Z,59.86
2023-03-27T22:37:36.729Z,60.88
2023-03-27T22:40:09.846Z,58.79
2023-03-27T22:42:41.119Z,60.05
2023-03-27T22:45:11.838Z,58.63
2023-03-27T22:47:45.258Z,57.63
2023-03-27T22:50:18.024Z,60.54
2023-03-27T22:52:49.818Z,61.47
2023-03-27T22:55:27.548Z,59.27
2023-03-27T22:57:58.965Z,60.29
2023-03-27T23:00:30.647Z,61.36
2023-03-27T23:03:02.999Z,59.17
2023-03-27T23:05:38.955Z,60.61
2023-03-27T23:08:09.371Z,59.91
2023-03-27T23:10:40.870Z,60.95
2023-03-27T23:13:12.515Z,59.50
2023-03-27T23:15:42.738Z,59.72
2023-03-27T23:18:14.575Z,58.28
2023-03-27T23:20:44.940Z,60.94
2023-03-27T23:23:15.980Z,59.44
2023-03-27T23:25:47.454Z,60.76
2023-03-27T23:28:17.962Z,61.53
2023-03-27T23:31:02.743Z,61.77
2023-03-27T23:33:38.652Z,61.01
2023-03-27T23:36:12.785Z,60.55
2023-03-27T23:38:44.330Z,60.08
2023-03-27T23:41:17.553Z,59.72
2023-03-27T23:43:49.459Z,61.77
2023-03-27T23:46:20.743Z,62.37
2023-03-27T23:48:51.909Z,60.89
2023-03-27T23:51:25.953Z,58.07
2023-03-27T23:53:56.342Z,59.26
2023-03-27T23:56:27.182Z,58.39
2023-03-27T23:58:58.174Z,59.02
